La Loma, New Mexico
Current Conditions -  °F | °C
As of 4:53 PM on Wednesday 28 Jan 2015 (Local Time) from KLVS Reporting Station
Clear Clear  
Wind Chill: 55°   Ceiling: Unl
Heat Index: 55°   Visibility: 10mi
Dew Point: 26°   Wind: 8mph
Humidity: 33%   Direction: 110°ESE
Pressure: 30.12"   Gusts: NA
Location:  35.19°N, 105.06°W
Report Text: KLVS 282353Z AUTO 11007KT 10SM CLR 13/M03 A3012 RMK AO2 WSHFT 2333 SLP131 T01281033 10183 20128 53005
Loading
Personal Weather Stations






























Interactive Weather Map New forecast layout! Learn more

10-Day Weather Forecast

Advertisements
Track Severe Weather on mobile